sensor_id;sensor_type;location;lat;lon;timestamp;pressure;altitude;pressure_sealevel;temperature;humidity
46223;BME280;31943;51.410;7.564;2023-06-14T00:00:04;100069.91;;;17.49;49.91
46223;BME280;31943;51.410;7.564;2023-06-14T00:02:34;100077.00;;;17.45;49.72
46223;BME280;31943;51.410;7.564;2023-06-14T00:04:59;100077.97;;;17.41;49.88
46223;BME280;31943;51.410;7.564;2023-06-14T00:07:34;100079.78;;;17.39;50.29
46223;BME280;31943;51.410;7.564;2023-06-14T00:10:00;100080.72;;;17.35;50.22
46223;BME280;31943;51.410;7.564;2023-06-14T00:12:25;100084.38;;;17.29;50.29
46223;BME280;31943;51.410;7.564;2023-06-14T00:14:53;100090.59;;;17.25;50.64
46223;BME280;31943;51.410;7.564;2023-06-14T00:17:19;100091.59;;;17.19;50.64
46223;BME280;31943;51.410;7.564;2023-06-14T00:19:46;100094.28;;;17.16;50.82
46223;BME280;31943;51.410;7.564;2023-06-14T00:22:11;100095.19;;;17.15;50.63
46223;BME280;31943;51.410;7.564;2023-06-14T00:24:38;100104.91;;;17.12;50.75
46223;BME280;31943;51.410;7.564;2023-06-14T00:27:04;100104.97;;;17.09;50.91
46223;BME280;31943;51.410;7.564;2023-06-14T00:29:30;100103.25;;;17.06;50.75
46223;BME280;31943;51.410;7.564;2023-06-14T00:31:56;100104.19;;;17.04;51.03
46223;BME280;31943;51.410;7.564;2023-06-14T00:34:21;100108.63;;;17.02;50.88
46223;BME280;31943;51.410;7.564;2023-06-14T00:36:49;100105.19;;;16.98;50.91
46223;BME280;31943;51.410;7.564;2023-06-14T00:39:15;100107.84;;;16.96;50.98
46223;BME280;31943;51.410;7.564;2023-06-14T00:41:40;100116.69;;;16.92;50.92
46223;BME280;31943;51.410;7.564;2023-06-14T00:44:07;100114.09;;;16.89;50.93
46223;BME280;31943;51.410;7.564;2023-06-14T00:46:33;100108.91;;;16.86;51.22
46223;BME280;31943;51.410;7.564;2023-06-14T00:49:00;100108.06;;;16.81;51.36
46223;BME280;31943;51.410;7.564;2023-06-14T00:51:26;100106.38;;;16.78;51.08
46223;BME280;31943;51.410;7.564;2023-06-14T00:53:55;100104.59;;;16.80;51.14
46223;BME280;31943;51.410;7.564;2023-06-14T00:56:21;100112.50;;;16.82;51.28
46223;BME280;31943;51.410;7.564;2023-06-14T00:58:47;100108.16;;;16.78;51.43
46223;BME280;31943;51.410;7.564;2023-06-14T01:01:13;100109.97;;;16.74;51.17
46223;BME280;31943;51.410;7.564;2023-06-14T01:03:38;100116.19;;;16.70;51.30
46223;BME280;31943;51.410;7.564;2023-06-14T01:06:14;100118.84;;;16.67;51.28
46223;BME280;31943;51.410;7.564;2023-06-14T01:08:47;100118.09;;;16.60;51.52
46223;BME280;31943;51.410;7.564;2023-06-14T01:11:24;100119.94;;;16.55;51.49
46223;BME280;31943;51.410;7.564;2023-06-14T01:13:52;100119.00;;;16.58;50.94
46223;BME280;31943;51.410;7.564;2023-06-14T01:16:19;100121.63;;;16.59;51.09
46223;BME280;31943;51.410;7.564;2023-06-14T01:18:45;100133.09;;;16.57;50.97
46223;BME280;31943;51.410;7.564;2023-06-14T01:21:20;100130.44;;;16.58;51.17
46223;BME280;31943;51.410;7.564;2023-06-14T01:23:47;100134.81;;;16.58;50.88
46223;BME280;31943;51.410;7.564;2023-06-14T01:26:13;100129.59;;;16.56;50.96
46223;BME280;31943;51.410;7.564;2023-06-14T01:28:39;100129.66;;;16.50;51.01
46223;BME280;31943;51.410;7.564;2023-06-14T01:31:07;100131.53;;;16.44;51.13
46223;BME280;31943;51.410;7.564;2023-06-14T01:33:33;100122.91;;;16.34;51.20
46223;BME280;31943;51.410;7.564;2023-06-14T01:36:01;100125.63;;;16.29;51.53
46223;BME280;31943;51.410;7.564;2023-06-14T01:38:30;100123.91;;;16.27;51.71
46223;BME280;31943;51.410;7.564;2023-06-14T01:40:58;100123.03;;;16.26;51.96
46223;BME280;31943;51.410;7.564;2023-06-14T01:43:24;100130.94;;;16.25;51.89
46223;BME280;31943;51.410;7.564;2023-06-14T01:45:51;100129.22;;;16.24;51.84
46223;BME280;31943;51.410;7.564;2023-06-14T01:48:22;100130.16;;;16.21;51.94
46223;BME280;31943;51.410;7.564;2023-06-14T01:50:47;100119.66;;;16.16;51.98
46223;BME280;31943;51.410;7.564;2023-06-14T01:53:13;100132.00;;;16.13;51.98
46223;BME280;31943;51.410;7.564;2023-06-14T01:55:39;100125.03;;;16.10;51.81
46223;BME280;31943;51.410;7.564;2023-06-14T01:58:06;100124.22;;;16.05;51.92
46223;BME280;31943;51.410;7.564;2023-06-14T02:00:32;100121.66;;;15.99;51.95
46223;BME280;31943;51.410;7.564;2023-06-14T02:03:07;100118.22;;;15.95;52.17
46223;BME280;31943;51.410;7.564;2023-06-14T02:05:32;100117.44;;;15.87;52.23
46223;BME280;31943;51.410;7.564;2023-06-14T02:08:08;100127.13;;;15.84;52.12
46223;BME280;31943;51.410;7.564;2023-06-14T02:10:34;100128.06;;;15.79;52.59
46223;BME280;31943;51.410;7.564;2023-06-14T02:13:01;100122.81;;;15.81;52.40
46223;BME280;31943;51.410;7.564;2023-06-14T02:15:29;100121.94;;;15.79;52.37
46223;BME280;31943;51.410;7.564;2023-06-14T02:17:55;100125.50;;;15.76;52.42
46223;BME280;31943;51.410;7.564;2023-06-14T02:20:22;100118.53;;;15.71;52.50
46223;BME280;31943;51.410;7.564;2023-06-14T02:22:48;100121.19;;;15.68;52.41
46223;BME280;31943;51.410;7.564;2023-06-14T02:25:13;100122.09;;;15.67;52.55
46223;BME280;31943;51.410;7.564;2023-06-14T02:27:40;100133.50;;;15.66;52.26
46223;BME280;31943;51.410;7.564;2023-06-14T02:30:07;100136.16;;;15.62;52.28
46223;BME280;31943;51.410;7.564;2023-06-14T02:32:34;100132.69;;;15.60;51.96
46223;BME280;31943;51.410;7.564;2023-06-14T02:35:01;100137.13;;;15.57;52.35
46223;BME280;31943;51.410;7.564;2023-06-14T02:37:27;100131.94;;;15.51;52.43
46223;BME280;31943;51.410;7.564;2023-06-14T02:39:52;100134.59;;;15.48;52.54
46223;BME280;31943;51.410;7.564;2023-06-14T02:42:18;100138.16;;;15.42;52.55
46223;BME280;31943;51.410;7.564;2023-06-14T02:44:45;100132.94;;;15.39;52.28
46223;BME280;31943;51.410;7.564;2023-06-14T02:47:10;100131.19;;;15.39;52.54
46223;BME280;31943;51.410;7.564;2023-06-14T02:52:41;100143.50;;;15.36;52.46
46223;BME280;31943;51.410;7.564;2023-06-14T02:55:08;100135.66;;;15.33;52.75
46223;BME280;31943;51.410;7.564;2023-06-14T02:57:33;100140.03;;;15.31;52.76
46223;BME280;31943;51.410;7.564;2023-06-14T03:00:00;100143.53;;;15.33;52.57
46223;BME280;31943;51.410;7.564;2023-06-14T03:02:26;100139.16;;;15.30;52.60
46223;BME280;31943;51.410;7.564;2023-06-14T03:04:52;100140.09;;;15.28;52.86
46223;BME280;31943;51.410;7.564;2023-06-14T03:07:17;100140.16;;;15.21;52.48
46223;BME280;31943;51.410;7.564;2023-06-14T03:09:48;100148.06;;;15.17;52.63
46223;BME280;31943;51.410;7.564;2023-06-14T03:12:14;100158.63;;;15.12;52.74
46223;BME280;31943;51.410;7.564;2023-06-14T03:14:40;100158.66;;;15.09;53.18
46223;BME280;31943;51.410;7.564;2023-06-14T03:17:06;100159.56;;;15.08;52.91
46223;BME280;31943;51.410;7.564;2023-06-14T03:19:31;100164.81;;;15.08;52.90
46223;BME280;31943;51.410;7.564;2023-06-14T03:21:57;100168.28;;;15.12;52.87
46223;BME280;31943;51.410;7.564;2023-06-14T03:24:23;100162.16;;;15.11;52.94
46223;BME280;31943;51.410;7.564;2023-06-14T03:26:50;100170.94;;;15.10;52.95
46223;BME280;31943;51.410;7.564;2023-06-14T03:29:18;100169.22;;;15.08;53.23
46223;BME280;31943;51.410;7.564;2023-06-14T03:31:56;100176.19;;;15.07;52.97
46223;BME280;31943;51.410;7.564;2023-06-14T03:34:22;100175.34;;;15.05;52.94
46223;BME280;31943;51.410;7.564;2023-06-14T03:36:48;100183.22;;;15.05;53.01
46223;BME280;31943;51.410;7.564;2023-06-14T03:39:14;100184.13;;;15.04;52.93
46223;BME280;31943;51.410;7.564;2023-06-14T03:41:40;100187.63;;;15.03;53.22
46223;BME280;31943;51.410;7.564;2023-06-14T03:44:07;100189.41;;;15.01;53.35
46223;BME280;31943;51.410;7.564;2023-06-14T03:46:32;100187.66;;;15.00;53.76
46223;BME280;31943;51.410;7.564;2023-06-14T03:48:58;100195.56;;;15.01;53.30
46223;BME280;31943;51.410;7.564;2023-06-14T03:51:24;100199.91;;;15.02;53.45
46223;BME280;31943;51.410;7.564;2023-06-14T03:53:49;100196.41;;;15.00;53.37
46223;BME280;31943;51.410;7.564;2023-06-14T03:56:15;100207.78;;;15.01;53.39
46223;BME280;31943;51.410;7.564;2023-06-14T03:58:41;100207.78;;;15.01;53.95
46223;BME280;31943;51.410;7.564;2023-06-14T04:01:08;100202.53;;;15.02;53.96
46223;BME280;31943;51.410;7.564;2023-06-14T04:03:33;100207.78;;;15.04;53.87
46223;BME280;31943;51.410;7.564;2023-06-14T04:06:00;100214.75;;;15.05;54.27
46223;BME280;31943;51.410;7.564;2023-06-14T04:08:26;100219.16;;;15.05;53.97
46223;BME280;31943;51.410;7.564;2023-06-14T04:10:53;100216.53;;;15.03;54.60
46223;BME280;31943;51.410;7.564;2023-06-14T04:13:25;100221.78;;;15.05;54.18
46223;BME280;31943;51.410;7.564;2023-06-14T04:15:51;100229.66;;;15.08;54.11
46223;BME280;31943;51.410;7.564;2023-06-14T04:18:24;100231.38;;;15.12;54.16
46223;BME280;31943;51.410;7.564;2023-06-14T04:20:50;100235.72;;;15.13;54.29
46223;BME280;31943;51.410;7.564;2023-06-14T04:23:17;100240.09;;;15.15;54.54
46223;BME280;31943;51.410;7.564;2023-06-14T04:25:43;100247.06;;;15.19;54.48
46223;BME280;31943;51.410;7.564;2023-06-14T04:28:09;100244.38;;;15.24;54.44
46223;BME280;31943;51.410;7.564;2023-06-14T04:30:35;100246.09;;;15.27;54.91
46223;BME280;31943;51.410;7.564;2023-06-14T04:33:01;100250.50;;;15.28;54.90
46223;BME280;31943;51.410;7.564;2023-06-14T04:35:28;100241.69;;;15.30;54.75
46223;BME280;31943;51.410;7.564;2023-06-14T04:37:55;100247.81;;;15.32;54.88
46223;BME280;31943;51.410;7.564;2023-06-14T04:40:20;100246.94;;;15.33;55.02
46223;BME280;31943;51.410;7.564;2023-06-14T04:42:46;100242.53;;;15.35;55.24
46223;BME280;31943;51.410;7.564;2023-06-14T04:45:12;100243.38;;;15.39;55.49
46223;BME280;31943;51.410;7.564;2023-06-14T04:47:37;100245.97;;;15.42;55.67
46223;BME280;31943;51.410;7.564;2023-06-14T04:50:04;100245.91;;;15.48;55.69
46223;BME280;31943;51.410;7.564;2023-06-14T04:52:31;100250.25;;;15.52;55.58
46223;BME280;31943;51.410;7.564;2023-06-14T04:54:56;100248.44;;;15.59;55.51
46223;BME280;31943;51.410;7.564;2023-06-14T04:57:22;100255.41;;;15.65;54.83
46223;BME280;31943;51.410;7.564;2023-06-14T04:59:47;100265.00;;;15.69;54.29
46223;BME280;31943;51.410;7.564;2023-06-14T05:02:13;100261.53;;;15.65;54.38
46223;BME280;31943;51.410;7.564;2023-06-14T05:04:39;100261.53;;;15.65;54.38
46223;BME280;31943;51.410;7.564;2023-06-14T05:07:06;100263.28;;;15.66;54.05
46223;BME280;31943;51.410;7.564;2023-06-14T05:09:33;100264.97;;;15.73;54.20
46223;BME280;31943;51.410;7.564;2023-06-14T05:11:59;100263.16;;;15.80;54.11
46223;BME280;31943;51.410;7.564;2023-06-14T05:14:25;100269.19;;;15.88;54.13
46223;BME280;31943;51.410;7.564;2023-06-14T05:16:50;100264.72;;;15.96;54.36
46223;BME280;31943;51.410;7.564;2023-06-14T05:19:16;100261.13;;;16.04;54.11
46223;BME280;31943;51.410;7.564;2023-06-14T05:21:50;100265.38;;;16.12;53.56
46223;BME280;31943;51.410;7.564;2023-06-14T05:24:15;100261.75;;;16.23;52.99
46223;BME280;31943;51.410;7.564;2023-06-14T05:26:41;100259.00;;;16.30;52.72
46223;BME280;31943;51.410;7.564;2023-06-14T05:29:06;100274.72;;;16.38;52.80
46223;BME280;31943;51.410;7.564;2023-06-14T05:31:32;100276.38;;;16.45;53.08
46223;BME280;31943;51.410;7.564;2023-06-14T05:33:58;100262.28;;;16.49;52.34
46223;BME280;31943;51.410;7.564;2023-06-14T05:36:23;100277.06;;;16.58;52.66
46223;BME280;31943;51.410;7.564;2023-06-14T05:38:51;100271.69;;;16.66;51.91
46223;BME280;31943;51.410;7.564;2023-06-14T05:41:16;100268.06;;;16.73;51.54
46223;BME280;31943;51.410;7.564;2023-06-14T05:43:42;100267.97;;;16.80;51.34
46223;BME280;31943;51.410;7.564;2023-06-14T05:46:07;100267.91;;;16.85;50.99
46223;BME280;31943;51.410;7.564;2023-06-14T05:48:33;100273.06;;;16.93;50.74
46223;BME280;31943;51.410;7.564;2023-06-14T05:50:59;100266.81;;;17.02;50.71
46223;BME280;31943;51.410;7.564;2023-06-14T05:53:24;100271.03;;;17.10;50.39
46223;BME280;31943;51.410;7.564;2023-06-14T05:55:51;100277.94;;;17.19;50.69
46223;BME280;31943;51.410;7.564;2023-06-14T05:58:17;100269.84;;;17.28;50.35
46223;BME280;31943;51.410;7.564;2023-06-14T06:00:43;100280.22;;;17.41;50.16
46223;BME280;31943;51.410;7.564;2023-06-14T06:03:08;100276.50;;;17.51;49.23
46223;BME280;31943;51.410;7.564;2023-06-14T06:05:34;100275.44;;;17.61;48.93
46223;BME280;31943;51.410;7.564;2023-06-14T06:08:00;100277.84;;;17.73;48.62
46223;BME280;31943;51.410;7.564;2023-06-14T06:10:27;100280.31;;;17.84;48.72
46223;BME280;31943;51.410;7.564;2023-06-14T06:12:54;100282.56;;;18.03;48.59
46223;BME280;31943;51.410;7.564;2023-06-14T06:15:20;100274.28;;;18.21;47.72
46223;BME280;31943;51.410;7.564;2023-06-14T06:17:45;100273.78;;;18.44;47.56
46223;BME280;31943;51.410;7.564;2023-06-14T06:20:12;100274.13;;;18.68;47.16
46223;BME280;31943;51.410;7.564;2023-06-14T06:22:39;100273.78;;;18.85;46.52
46223;BME280;31943;51.410;7.564;2023-06-14T06:25:05;100272.50;;;19.01;45.64
46223;BME280;31943;51.410;7.564;2023-06-14T06:27:31;100281.78;;;19.19;45.62
46223;BME280;31943;51.410;7.564;2023-06-14T06:29:58;100277.66;;;19.42;45.37
46223;BME280;31943;51.410;7.564;2023-06-14T06:32:24;100279.72;;;19.65;44.48
46223;BME280;31943;51.410;7.564;2023-06-14T06:34:50;100284.63;;;19.80;44.26
46223;BME280;31943;51.410;7.564;2023-06-14T06:37:15;100285.28;;;19.88;43.47
46223;BME280;31943;51.410;7.564;2023-06-14T06:39:41;100291.22;;;19.97;43.80
46223;BME280;31943;51.410;7.564;2023-06-14T06:42:07;100296.16;;;20.09;43.84
46223;BME280;31943;51.410;7.564;2023-06-14T06:44:33;100293.81;;;20.29;43.49
46223;BME280;31943;51.410;7.564;2023-06-14T06:47:00;100290.53;;;20.51;42.76
46223;BME280;31943;51.410;7.564;2023-06-14T06:49:25;100298.13;;;20.63;42.00
46223;BME280;31943;51.410;7.564;2023-06-14T06:52:01;100301.06;;;20.84;42.45
46223;BME280;31943;51.410;7.564;2023-06-14T06:54:26;100298.81;;;20.98;41.01
46223;BME280;31943;51.410;7.564;2023-06-14T06:56:52;100295.88;;;21.07;41.45
46223;BME280;31943;51.410;7.564;2023-06-14T06:59:18;100294.69;;;21.16;40.89
46223;BME280;31943;51.410;7.564;2023-06-14T07:01:43;100297.88;;;21.27;40.47
46223;BME280;31943;51.410;7.564;2023-06-14T07:04:11;100302.06;;;21.35;40.68
46223;BME280;31943;51.410;7.564;2023-06-14T07:06:37;100303.59;;;21.40;40.20
46223;BME280;31943;51.410;7.564;2023-06-14T07:09:02;100305.94;;;21.51;39.20
46223;BME280;31943;51.410;7.564;2023-06-14T07:11:28;100309.91;;;21.64;39.60
46223;BME280;31943;51.410;7.564;2023-06-14T07:13:54;100308.72;;;21.73;39.44
46223;BME280;31943;51.410;7.564;2023-06-14T07:16:20;100304.13;;;21.78;39.05
46223;BME280;31943;51.410;7.564;2023-06-14T07:18:45;100312.50;;;21.91;38.84
46223;BME280;31943;51.410;7.564;2023-06-14T07:21:12;100310.44;;;21.99;38.04
46223;BME280;31943;51.410;7.564;2023-06-14T07:23:38;100310.75;;;21.91;38.22
46223;BME280;31943;51.410;7.564;2023-06-14T07:26:03;100315.75;;;21.99;38.06
46223;BME280;31943;51.410;7.564;2023-06-14T07:28:29;100307.34;;;22.11;38.38
46223;BME280;31943;51.410;7.564;2023-06-14T07:30:55;100319.91;;;22.31;38.08
46223;BME280;31943;51.410;7.564;2023-06-14T07:33:21;100318.69;;;22.40;37.88
46223;BME280;31943;51.410;7.564;2023-06-14T07:35:46;100318.41;;;22.48;37.78
46223;BME280;31943;51.410;7.564;2023-06-14T07:38:14;100319.81;;;22.58;38.12
46223;BME280;31943;51.410;7.564;2023-06-14T07:40:39;100314.50;;;22.58;37.37
46223;BME280;31943;51.410;7.564;2023-06-14T07:43:05;100316.16;;;22.61;36.99
46223;BME280;31943;51.410;7.564;2023-06-14T07:45:30;100317.53;;;22.71;38.21
46223;BME280;31943;51.410;7.564;2023-06-14T07:47:57;100314.22;;;22.88;38.08
46223;BME280;31943;51.410;7.564;2023-06-14T07:53:00;100322.66;;;22.76;37.73
46223;BME280;31943;51.410;7.564;2023-06-14T07:55:28;100320.38;;;22.88;37.61
46223;BME280;31943;51.410;7.564;2023-06-14T07:57:53;100319.22;;;22.96;36.92
46223;BME280;31943;51.410;7.564;2023-06-14T08:00:19;100322.47;;;23.04;37.30
46223;BME280;31943;51.410;7.564;2023-06-14T08:02:45;100319.63;;;23.08;37.16
46223;BME280;31943;51.410;7.564;2023-06-14T08:05:11;100311.63;;;23.08;36.45
46223;BME280;31943;51.410;7.564;2023-06-14T08:07:37;100321.22;;;23.13;36.65
46223;BME280;31943;51.410;7.564;2023-06-14T08:10:03;100310.75;;;23.30;37.02
46223;BME280;31943;51.410;7.564;2023-06-14T08:12:31;100320.53;;;23.50;36.88
46223;BME280;31943;51.410;7.564;2023-06-14T08:14:56;100321.16;;;23.57;35.34
46223;BME280;31943;51.410;7.564;2023-06-14T08:17:22;100324.84;;;23.54;34.05
46223;BME280;31943;51.410;7.564;2023-06-14T08:19:48;100330.50;;;23.46;34.77
46223;BME280;31943;51.410;7.564;2023-06-14T08:22:13;100322.41;;;23.48;34.27
46223;BME280;31943;51.410;7.564;2023-06-14T08:24:39;100322.34;;;23.49;34.19
46223;BME280;31943;51.410;7.564;2023-06-14T08:27:05;100325.00;;;23.49;34.55
46223;BME280;31943;51.410;7.564;2023-06-14T08:29:32;100321.81;;;23.62;34.67
46223;BME280;31943;51.410;7.564;2023-06-14T08:31:58;100318.59;;;23.76;34.99
46223;BME280;31943;51.410;7.564;2023-06-14T08:34:24;100321.81;;;23.84;33.63
46223;BME280;31943;51.410;7.564;2023-06-14T08:36:49;100320.53;;;23.93;33.63
46223;BME280;31943;51.410;7.564;2023-06-14T08:39:15;100325.69;;;23.97;33.27
46223;BME280;31943;51.410;7.564;2023-06-14T08:41:42;100324.75;;;23.78;32.83
46223;BME280;31943;51.410;7.564;2023-06-14T08:44:08;100333.63;;;23.77;33.31
46223;BME280;31943;51.410;7.564;2023-06-14T08:46:37;100324.91;;;23.73;33.25
46223;BME280;31943;51.410;7.564;2023-06-14T08:49:03;100326.59;;;23.76;33.68
46223;BME280;31943;51.410;7.564;2023-06-14T08:51:30;100321.13;;;23.99;33.83
46223;BME280;31943;51.410;7.564;2023-06-14T08:53:56;100315.31;;;24.10;33.73
46223;BME280;31943;51.410;7.564;2023-06-14T08:56:23;100334.31;;;24.23;33.75
46223;BME280;31943;51.410;7.564;2023-06-14T08:58:50;100327.28;;;24.01;33.38
46223;BME280;31943;51.410;7.564;2023-06-14T09:01:16;100323.13;;;23.94;32.67
46223;BME280;31943;51.410;7.564;2023-06-14T09:03:44;100337.13;;;23.99;34.08
46223;BME280;31943;51.410;7.564;2023-06-14T09:06:10;100323.34;;;23.90;33.02
46223;BME280;31943;51.410;7.564;2023-06-14T09:08:36;100328.59;;;23.91;32.78
46223;BME280;31943;51.410;7.564;2023-06-14T09:11:01;100327.44;;;23.97;33.65
46223;BME280;31943;51.410;7.564;2023-06-14T09:13:27;100323.25;;;24.12;32.95
46223;BME280;31943;51.410;7.564;2023-06-14T09:15:53;100321.72;;;24.06;33.04
46223;BME280;31943;51.410;7.564;2023-06-14T09:18:19;100327.88;;;23.87;33.02
46223;BME280;31943;51.410;7.564;2023-06-14T09:20:46;100327.72;;;23.91;32.89
46223;BME280;31943;51.410;7.564;2023-06-14T09:23:12;100330.63;;;24.05;34.16
46223;BME280;31943;51.410;7.564;2023-06-14T09:25:46;100328.53;;;24.32;33.64
46223;BME280;31943;51.410;7.564;2023-06-14T09:28:11;100332.38;;;24.45;32.71
46223;BME280;31943;51.410;7.564;2023-06-14T09:30:38;100335.25;;;24.41;32.70
46223;BME280;31943;51.410;7.564;2023-06-14T09:33:03;100334.81;;;24.50;32.88
46223;BME280;31943;51.410;7.564;2023-06-14T09:35:31;100328.78;;;24.65;32.97
46223;BME280;31943;51.410;7.564;2023-06-14T09:37:58;100339.69;;;24.80;32.84
46223;BME280;31943;51.410;7.564;2023-06-14T09:40:24;100341.84;;;24.91;32.21
46223;BME280;31943;51.410;7.564;2023-06-14T09:42:49;100335.22;;;24.80;31.29
46223;BME280;31943;51.410;7.564;2023-06-14T09:45:16;100332.78;;;24.76;31.60
46223;BME280;31943;51.410;7.564;2023-06-14T09:47:42;100336.31;;;24.76;31.93
46223;BME280;31943;51.410;7.564;2023-06-14T09:50:09;100335.94;;;24.84;31.78
46223;BME280;31943;51.410;7.564;2023-06-14T09:52:35;100341.91;;;24.51;32.32
46223;BME280;31943;51.410;7.564;2023-06-14T09:55:08;100327.09;;;24.44;32.34
46223;BME280;31943;51.410;7.564;2023-06-14T09:57:37;100334.81;;;24.50;32.69
46223;BME280;31943;51.410;7.564;2023-06-14T10:00:07;100337.56;;;24.48;32.34
46223;BME280;31943;51.410;7.564;2023-06-14T10:02:35;100330.03;;;24.58;33.55
46223;BME280;31943;51.410;7.564;2023-06-14T10:05:03;100341.69;;;24.56;33.07
46223;BME280;31943;51.410;7.564;2023-06-14T10:07:32;100348.41;;;24.64;33.80
46223;BME280;31943;51.410;7.564;2023-06-14T10:09:59;100341.41;;;24.81;33.16
46223;BME280;31943;51.410;7.564;2023-06-14T10:12:26;100339.88;;;24.94;33.19
46223;BME280;31943;51.410;7.564;2023-06-14T10:14:53;100339.47;;;25.03;33.10
46223;BME280;31943;51.410;7.564;2023-06-14T10:17:26;100342.84;;;25.07;32.27
46223;BME280;31943;51.410;7.564;2023-06-14T10:19:57;100349.75;;;25.11;32.26
46223;BME280;31943;51.410;7.564;2023-06-14T10:22:29;100333.09;;;25.06;32.66
46223;BME280;31943;51.410;7.564;2023-06-14T10:24:56;100335.91;;;25.22;33.14
46223;BME280;31943;51.410;7.564;2023-06-14T10:27:22;100338.66;;;25.38;33.18
46223;BME280;31943;51.410;7.564;2023-06-14T10:30:07;100338.06;;;25.50;32.23
46223;BME280;31943;51.410;7.564;2023-06-14T10:32:33;100331.78;;;25.51;32.38
46223;BME280;31943;51.410;7.564;2023-06-14T10:35:01;100332.72;;;25.50;31.70
46223;BME280;31943;51.410;7.564;2023-06-14T10:37:29;100334.88;;;25.24;32.41
46223;BME280;31943;51.410;7.564;2023-06-14T10:39:55;100331.03;;;25.30;32.57
46223;BME280;31943;51.410;7.564;2023-06-14T10:42:20;100324.31;;;25.40;32.90
46223;BME280;31943;51.410;7.564;2023-06-14T10:44:49;100335.09;;;25.56;33.22
46223;BME280;31943;51.410;7.564;2023-06-14T10:47:27;100333.19;;;25.58;32.03
46223;BME280;31943;51.410;7.564;2023-06-14T10:49:54;100326.03;;;25.41;31.99
46223;BME280;31943;51.410;7.564;2023-06-14T10:52:27;100328.38;;;25.48;32.18
46223;BME280;31943;51.410;7.564;2023-06-14T10:55:06;100325.16;;;25.23;32.27
46223;BME280;31943;51.410;7.564;2023-06-14T10:57:32;100331.94;;;25.31;32.21
46223;BME280;31943;51.410;7.564;2023-06-14T10:59:58;100322.59;;;25.20;31.90
46223;BME280;31943;51.410;7.564;2023-06-14T11:02:46;100325.63;;;24.95;32.07
46223;BME280;31943;51.410;7.564;2023-06-14T11:05:15;100343.91;;;25.03;33.32
46223;BME280;31943;51.410;7.564;2023-06-14T11:07:48;100323.41;;;25.22;33.31
46223;BME280;31943;51.410;7.564;2023-06-14T11:10:25;100325.00;;;25.44;32.43
46223;BME280;31943;51.410;7.564;2023-06-14T11:12:52;100325.25;;;25.39;32.10
46223;BME280;31943;51.410;7.564;2023-06-14T11:15:20;100316.06;;;25.45;32.99
46223;BME280;31943;51.410;7.564;2023-06-14T11:17:53;100321.53;;;25.77;33.40
46223;BME280;31943;51.410;7.564;2023-06-14T11:20:19;100320.91;;;25.72;31.84
46223;BME280;31943;51.410;7.564;2023-06-14T11:22:45;100313.78;;;25.72;31.90
46223;BME280;31943;51.410;7.564;2023-06-14T11:25:13;100317.69;;;25.82;32.24
46223;BME280;31943;51.410;7.564;2023-06-14T11:27:38;100314.00;;;26.02;31.71
46223;BME280;31943;51.410;7.564;2023-06-14T11:30:07;100317.69;;;25.82;31.01
46223;BME280;31943;51.410;7.564;2023-06-14T11:32:33;100323.91;;;25.83;31.81
46223;BME280;31943;51.410;7.564;2023-06-14T11:35:00;100319.19;;;25.88;32.16
46223;BME280;31943;51.410;7.564;2023-06-14T11:37:27;100320.31;;;26.01;32.08
46223;BME280;31943;51.410;7.564;2023-06-14T11:39:56;100313.31;;;26.15;31.89
46223;BME280;31943;51.410;7.564;2023-06-14T11:42:21;100313.44;;;26.13;31.30
46223;BME280;31943;51.410;7.564;2023-06-14T11:44:47;100315.06;;;26.16;32.09
46223;BME280;31943;51.410;7.564;2023-06-14T11:47:13;100316.88;;;26.15;31.42
46223;BME280;31943;51.410;7.564;2023-06-14T11:49:40;100319.16;;;26.23;31.46
46223;BME280;31943;51.410;7.564;2023-06-14T11:52:08;100316.81;;;26.17;31.45
46223;BME280;31943;51.410;7.564;2023-06-14T11:54:34;100308.81;;;25.99;31.54
46223;BME280;31943;51.410;7.564;2023-06-14T11:57:00;100312.19;;;26.03;31.29
46223;BME280;31943;51.410;7.564;2023-06-14T11:59:26;100308.03;;;25.97;31.43
46223;BME280;31943;51.410;7.564;2023-06-14T12:01:53;100312.47;;;26.14;32.42
46223;BME280;31943;51.410;7.564;2023-06-14T12:04:23;100302.84;;;26.28;31.11
46223;BME280;31943;51.410;7.564;2023-06-14T12:06:49;100302.78;;;26.45;31.62
46223;BME280;31943;51.410;7.564;2023-06-14T12:09:16;100304.22;;;26.68;30.86
46223;BME280;31943;51.410;7.564;2023-06-14T12:11:42;100307.41;;;26.75;30.95
46223;BME280;31943;51.410;7.564;2023-06-14T12:14:08;100315.63;;;26.88;29.88
46223;BME280;31943;51.410;7.564;2023-06-14T12:16:36;100301.19;;;26.74;29.95
46223;BME280;31943;51.410;7.564;2023-06-14T12:19:13;100303.78;;;26.92;30.87
46223;BME280;31943;51.410;7.564;2023-06-14T12:21:39;100294.34;;;27.00;29.71
46223;BME280;31943;51.410;7.564;2023-06-14T12:24:05;100300.88;;;27.11;29.47
46223;BME280;31943;51.410;7.564;2023-06-14T12:26:33;100296.06;;;27.01;29.89
46223;BME280;31943;51.410;7.564;2023-06-14T12:28:59;100302.00;;;27.07;29.63
46223;BME280;31943;51.410;7.564;2023-06-14T12:31:24;100303.78;;;26.76;31.10
46223;BME280;31943;51.410;7.564;2023-06-14T12:33:50;100297.28;;;26.96;30.60
46223;BME280;31943;51.410;7.564;2023-06-14T12:36:16;100299.66;;;27.16;29.64
46223;BME280;31943;51.410;7.564;2023-06-14T12:38:43;100310.38;;;27.32;29.62
46223;BME280;31943;51.410;7.564;2023-06-14T12:41:09;100306.78;;;27.48;30.51
46223;BME280;31943;51.410;7.564;2023-06-14T12:43:36;100302.13;;;27.66;29.55
46223;BME280;31943;51.410;7.564;2023-06-14T12:46:02;100299.75;;;27.75;29.50
46223;BME280;31943;51.410;7.564;2023-06-14T12:48:29;100309.94;;;27.85;28.93
46223;BME280;31943;51.410;7.564;2023-06-14T12:50:55;100301.16;;;27.97;29.09
46223;BME280;31943;51.410;7.564;2023-06-14T12:53:21;100303.28;;;28.20;28.90